Time;durP1;ratioP1;P1;durP2;ratioP2;P2;SDS_P1;SDS_P2;PMS_P1;PMS_P2;Temp;Humidity;BMP_temperature;BMP_pressure;BME280_temperature;BME280_humidity;BME280_pressure;Samples;Min_cycle;Max_cycle;Signal;HPM_P1;HPM_P2
2023/12/26 00:01:15;;;;;;;0.00;0.00;;;13.50;82.50;;;;;;5085497;28;20207;-24
2023/12/26 00:03:49;;;;;;;0.00;0.00;;;13.50;82.40;;;;;;5084318;28;20233;-24
2023/12/26 00:06:21;;;;;;;0.00;0.00;;;13.50;82.50;;;;;;5083916;28;20231;-24
2023/12/26 00:08:49;;;;;;;0.00;0.00;;;13.50;82.40;;;;;;5084107;28;20210;-23
2023/12/26 00:11:19;;;;;;;0.00;0.00;;;13.50;82.60;;;;;;5085933;28;20881;-24
2023/12/26 00:13:48;;;;;;;0.00;0.00;;;13.50;82.60;;;;;;5084740;28;20223;-24
2023/12/26 00:16:15;;;;;;;0.00;0.00;;;13.50;82.60;;;;;;5083706;28;20204;-24
2023/12/26 00:18:43;;;;;;;0.00;0.00;;;13.50;82.50;;;;;;5085371;28;20233;-24
2023/12/26 00:21:15;;;;;;;0.00;0.00;;;13.50;83.20;;;;;;5083937;28;20191;-24
2023/12/26 00:23:42;;;;;;;0.00;0.00;;;13.50;82.50;;;;;;5081255;28;20226;-24
2023/12/26 00:26:12;;;;;;;0.00;0.00;;;13.50;83.20;;;;;;5067199;28;20318;-23
2023/12/26 00:28:39;;;;;;;0.00;0.00;;;13.40;82.40;;;;;;5085374;28;20198;-24
2023/12/26 00:31:13;;;;;;;0.00;0.00;;;13.40;82.50;;;;;;5085084;28;20202;-24
2023/12/26 00:33:48;;;;;;;0.00;0.00;;;13.40;82.50;;;;;;5083398;28;20222;-23
2023/12/26 00:36:18;;;;;;;0.00;0.00;;;13.40;82.40;;;;;;5085179;28;20297;-24
2023/12/26 00:38:48;;;;;;;0.00;0.00;;;13.40;82.60;;;;;;5084062;28;20299;-24
2023/12/26 00:41:16;;;;;;;0.00;0.00;;;13.30;82.60;;;;;;5084028;28;20527;-24
2023/12/26 00:43:45;;;;;;;0.00;0.00;;;13.40;82.60;;;;;;5083337;28;20643;-23
2023/12/26 00:46:15;;;;;;;0.00;0.00;;;13.30;82.50;;;;;;5086246;28;20206;-24
2023/12/26 00:48:47;;;;;;;0.00;0.00;;;13.30;82.50;;;;;;5085545;28;20207;-24
2023/12/26 00:51:17;;;;;;;0.00;0.00;;;13.30;82.50;;;;;;5085959;28;20199;-24
2023/12/26 00:53:47;;;;;;;0.00;0.00;;;13.30;82.40;;;;;;5083689;28;20630;-24
2023/12/26 00:56:16;;;;;;;0.00;0.00;;;13.30;82.50;;;;;;5063778;28;20195;-24
2023/12/26 00:58:44;;;;;;;0.00;0.00;;;13.30;82.50;;;;;;5065485;28;20708;-23
2023/12/26 01:01:13;;;;;;;0.00;0.00;;;13.30;82.60;;;;;;5067385;28;20202;-23
2023/12/26 01:03:41;;;;;;;0.00;0.00;;;13.30;82.50;;;;;;5093251;28;20298;-23
2023/12/26 01:06:10;;;;;;;0.00;0.00;;;13.30;82.50;;;;;;5083554;28;20242;-24
2023/12/26 01:08:42;;;;;;;0.00;0.00;;;13.20;82.40;;;;;;5085767;28;20725;-23
2023/12/26 01:11:09;;;;;;;0.00;0.00;;;13.20;82.40;;;;;;5085011;28;20648;-23
2023/12/26 01:13:39;;;;;;;0.00;0.00;;;13.20;82.30;;;;;;5082123;28;20215;-24
2023/12/26 01:16:08;;;;;;;0.00;0.00;;;13.20;82.50;;;;;;5083290;28;20553;-24
2023/12/26 01:18:40;;;;;;;0.00;0.00;;;13.20;82.60;;;;;;5081782;28;20597;-24
2023/12/26 01:21:08;;;;;;;0.00;0.00;;;13.20;82.60;;;;;;5083551;28;20207;-23
2023/12/26 01:23:36;;;;;;;0.00;0.00;;;13.20;82.70;;;;;;5087086;28;20353;-24
2023/12/26 01:26:05;;;;;;;0.00;0.00;;;13.20;82.70;;;;;;5085491;28;20207;-23
2023/12/26 01:28:33;;;;;;;0.00;0.00;;;13.20;82.70;;;;;;5085278;28;20206;-24
2023/12/26 01:31:03;;;;;;;0.00;0.00;;;13.20;82.70;;;;;;5081968;28;20211;-24
2023/12/26 01:33:34;;;;;;;0.00;0.00;;;13.20;82.70;;;;;;5083834;28;20199;-24
2023/12/26 01:36:04;;;;;;;0.00;0.00;;;13.20;82.70;;;;;;5085390;28;20588;-23
2023/12/26 01:38:34;;;;;;;0.00;0.00;;;13.20;82.70;;;;;;5069316;28;20202;-24
2023/12/26 01:41:04;;;;;;;0.00;0.00;;;13.20;82.60;;;;;;5086155;28;20210;-24
2023/12/26 01:43:36;;;;;;;0.00;0.00;;;13.10;82.50;;;;;;5086004;28;20209;-24
2023/12/26 01:46:06;;;;;;;0.00;0.00;;;13.10;82.50;;;;;;5086216;28;20699;-24
2023/12/26 01:48:36;;;;;;;0.00;0.00;;;13.10;82.50;;;;;;5084262;28;20191;-24
2023/12/26 01:51:09;;;;;;;0.00;0.00;;;13.10;82.60;;;;;;5088577;28;20256;-23
2023/12/26 01:53:40;;;;;;;0.00;0.00;;;13.10;82.70;;;;;;5090414;28;20207;-23
2023/12/26 01:56:15;;;;;;;0.00;0.00;;;13.10;82.60;;;;;;5090424;28;20650;-24
2023/12/26 01:58:45;;;;;;;0.00;0.00;;;13.10;82.70;;;;;;5085031;28;20248;-24
2023/12/26 02:01:18;;;;;;;0.00;0.00;;;13.10;82.60;;;;;;5069685;28;20204;-23
2023/12/26 02:03:48;;;;;;;0.00;0.00;;;13.10;82.70;;;;;;5076010;28;20211;-23
2023/12/26 02:06:18;;;;;;;0.00;0.00;;;13.10;82.60;;;;;;5067685;28;20226;-23
2023/12/26 02:08:49;;;;;;;0.00;0.00;;;13.10;82.60;;;;;;5070398;28;20318;-24
2023/12/26 02:11:21;;;;;;;0.00;0.00;;;13.10;82.60;;;;;;5088417;28;20199;-24
2023/12/26 02:13:48;;;;;;;0.00;0.00;;;13.10;82.60;;;;;;5088240;28;20292;-23
2023/12/26 02:16:21;;;;;;;0.00;0.00;;;13.10;82.60;;;;;;5074136;28;20199;-23
2023/12/26 02:18:50;;;;;;;0.00;0.00;;;13.10;82.60;;;;;;5074504;28;20199;-23
2023/12/26 02:21:20;;;;;;;0.00;0.00;;;13.00;82.50;;;;;;5075926;28;20724;-23
2023/12/26 02:23:56;;;;;;;0.00;0.00;;;13.00;82.50;;;;;;5069515;28;20652;-23
2023/12/26 02:26:28;;;;;;;0.00;0.00;;;13.00;82.50;;;;;;5069437;28;20215;-24
2023/12/26 02:28:58;;;;;;;0.00;0.00;;;13.00;82.50;;;;;;5087569;28;20195;-23
2023/12/26 02:31:29;;;;;;;0.00;0.00;;;13.00;82.50;;;;;;5089133;28;20582;-24
2023/12/26 02:33:57;;;;;;;0.00;0.00;;;13.00;82.50;;;;;;5086785;28;20344;-24
2023/12/26 02:36:25;;;;;;;0.00;0.00;;;13.00;82.60;;;;;;5071840;28;20203;-24
2023/12/26 02:38:54;;;;;;;0.00;0.00;;;13.00;82.60;;;;;;5086510;28;20207;-24
2023/12/26 02:41:22;;;;;;;0.00;0.00;;;13.00;82.70;;;;;;5053681;28;20491;-24
2023/12/26 02:43:51;;;;;;;0.00;0.00;;;13.00;82.70;;;;;;5087666;28;20199;-24
2023/12/26 02:46:18;;;;;;;0.00;0.00;;;13.00;82.70;;;;;;5089270;28;20549;-23
2023/12/26 02:48:46;;;;;;;0.00;0.00;;;13.00;82.70;;;;;;5085116;28;20221;-24
2023/12/26 02:51:13;;;;;;;0.00;0.00;;;13.00;82.70;;;;;;5089138;28;20191;-24
2023/12/26 02:53:47;;;;;;;0.00;0.00;;;13.00;82.80;;;;;;5085423;28;20292;-23
2023/12/26 02:56:17;;;;;;;0.00;0.00;;;13.00;82.80;;;;;;5089024;28;20209;-23
2023/12/26 02:58:46;;;;;;;0.00;0.00;;;13.00;82.70;;;;;;5089162;28;20642;-24
2023/12/26 03:01:13;;;;;;;0.00;0.00;;;13.00;82.70;;;;;;5087084;28;20244;-23
2023/12/26 03:03:41;;;;;;;0.00;0.00;;;13.00;82.60;;;;;;5085970;28;20211;-24
2023/12/26 03:06:08;;;;;;;0.00;0.00;;;13.00;82.70;;;;;;5087632;28;20242;-24
2023/12/26 03:08:38;;;;;;;0.00;0.00;;;12.90;82.60;;;;;;5087297;28;20198;-24
2023/12/26 03:11:08;;;;;;;0.00;0.00;;;12.90;82.70;;;;;;5088539;28;20191;-23
2023/12/26 03:13:39;;;;;;;0.00;0.00;;;12.90;82.80;;;;;;5085974;28;20632;-24
2023/12/26 03:16:09;;;;;;;0.00;0.00;;;12.90;82.80;;;;;;5086977;28;20223;-24
2023/12/26 03:18:36;;;;;;;0.00;0.00;;;12.90;82.80;;;;;;5085364;28;20632;-24
2023/12/26 03:21:06;;;;;;;0.00;0.00;;;12.90;82.90;;;;;;5086279;28;20195;-24
2023/12/26 03:23:38;;;;;;;0.00;0.00;;;12.90;82.90;;;;;;5088641;28;20272;-24
2023/12/26 03:26:07;;;;;;;0.00;0.00;;;12.90;83.00;;;;;;5087266;28;20256;-24
2023/12/26 03:28:37;;;;;;;0.00;0.00;;;12.90;83.00;;;;;;5070196;28;20518;-24
2023/12/26 03:31:07;;;;;;;0.00;0.00;;;12.90;83.00;;;;;;5088022;28;20236;-24
2023/12/26 03:33:36;;;;;;;0.00;0.00;;;12.90;82.90;;;;;;5084153;28;20606;-24
2023/12/26 03:36:04;;;;;;;0.00;0.00;;;12.90;83.00;;;;;;5088425;28;20227;-24
2023/12/26 03:38:31;;;;;;;0.00;0.00;;;12.90;82.90;;;;;;5087240;28;20643;-24
2023/12/26 03:41:01;;;;;;;0.00;0.00;;;12.90;82.90;;;;;;5088351;28;20657;-24
2023/12/26 03:43:31;;;;;;;0.00;0.00;;;12.90;82.90;;;;;;5085966;28;20732;-24
2023/12/26 03:46:02;;;;;;;0.00;0.00;;;12.90;82.90;;;;;;5088282;28;20365;-24
2023/12/26 03:48:29;;;;;;;0.00;0.00;;;12.90;82.90;;;;;;5085974;28;20629;-24
2023/12/26 03:50:59;;;;;;;0.00;0.00;;;12.90;82.90;;;;;;5087640;28;20207;-24
2023/12/26 03:53:31;;;;;;;0.00;0.00;;;12.90;82.90;;;;;;5086575;28;20747;-24
2023/12/26 03:56:01;;;;;;;0.00;0.00;;;12.90;83.00;;;;;;5087741;28;20763;-24
2023/12/26 03:58:29;;;;;;;0.00;0.00;;;12.90;83.00;;;;;;5084309;28;20203;-24
2023/12/26 04:01:01;;;;;;;0.00;0.00;;;13.00;83.10;;;;;;5087372;28;20191;-24
2023/12/26 04:03:29;;;;;;;0.00;0.00;;;13.00;83.00;;;;;;5086171;28;20218;-24
2023/12/26 04:05:59;;;;;;;0.00;0.00;;;12.90;82.90;;;;;;5087483;28;20564;-24
2023/12/26 04:08:28;;;;;;;0.00;0.00;;;12.90;82.80;;;;;;5086227;28;20293;-23
2023/12/26 04:10:56;;;;;;;0.00;0.00;;;12.90;82.80;;;;;;5086388;28;20209;-23
2023/12/26 04:13:24;;;;;;;0.00;0.00;;;12.90;82.90;;;;;;5087286;28;20306;-24
2023/12/26 04:15:51;;;;;;;0.00;0.00;;;12.90;82.90;;;;;;5087273;28;20236;-23
2023/12/26 04:18:21;;;;;;;0.00;0.00;;;12.90;83.00;;;;;;5084222;28;21092;-24
2023/12/26 04:20:48;;;;;;;0.00;0.00;;;12.90;83.00;;;;;;5087128;28;20191;-24
2023/12/26 04:23:16;;;;;;;0.00;0.00;;;12.90;82.90;;;;;;5087563;28;21011;-24
2023/12/26 04:25:48;;;;;;;0.00;0.00;;;12.90;82.90;;;;;;5087721;28;20201;-24
2023/12/26 04:28:17;;;;;;;0.00;0.00;;;12.90;82.90;;;;;;5086634;28;20209;-24
2023/12/26 04:30:47;;;;;;;0.00;0.00;;;12.90;82.90;;;;;;5084864;28;20207;-24
2023/12/26 04:33:14;;;;;;;0.00;0.00;;;12.90;82.90;;;;;;5086507;28;20280;-24
2023/12/26 04:35:42;;;;;;;0.00;0.00;;;12.90;82.80;;;;;;5069259;28;20230;-24
2023/12/26 04:38:10;;;;;;;0.00;0.00;;;12.90;82.80;;;;;;5086088;28;20676;-24
2023/12/26 04:40:37;;;;;;;0.00;0.00;;;12.90;82.80;;;;;;5082933;28;20211;-23
2023/12/26 04:43:08;;;;;;;0.00;0.00;;;12.90;82.80;;;;;;5084220;28;20199;-24
2023/12/26 04:45:38;;;;;;;0.00;0.00;;;12.90;82.80;;;;;;5085518;28;20298;-23
2023/12/26 04:48:09;;;;;;;0.00;0.00;;;12.90;82.80;;;;;;5085060;28;20787;-24
2023/12/26 04:50:39;;;;;;;0.00;0.00;;;12.90;82.80;;;;;;5085260;28;20214;-24
2023/12/26 04:53:07;;;;;;;0.00;0.00;;;12.90;82.80;;;;;;5085736;28;20209;-24
2023/12/26 04:55:36;;;;;;;0.00;0.00;;;12.90;82.90;;;;;;5085615;28;20215;-24
2023/12/26 04:58:03;;;;;;;0.00;0.00;;;12.90;82.90;;;;;;5087398;28;20256;-24
2023/12/26 05:00:33;;;;;;;0.00;0.00;;;12.90;82.90;;;;;;5083617;28;20199;-24
2023/12/26 05:03:00;;;;;;;0.00;0.00;;;12.80;82.80;;;;;;5085354;28;20207;-24
2023/12/26 05:05:31;;;;;;;0.00;0.00;;;12.80;82.90;;;;;;5081687;28;20622;-24
2023/12/26 05:07:58;;;;;;;0.00;0.00;;;12.90;83.00;;;;;;5084701;28;20195;-24
2023/12/26 05:10:25;;;;;;;0.00;0.00;;;12.80;82.90;;;;;;5082434;28;20209;-24
2023/12/26 05:12:55;;;;;;;0.00;0.00;;;12.90;83.00;;;;;;5084181;28;20212;-24
2023/12/26 05:15:24;;;;;;;0.00;0.00;;;12.90;83.00;;;;;;5066632;28;20256;-24
2023/12/26 05:17:54;;;;;;;0.00;0.00;;;12.90;83.00;;;;;;5084569;28;20566;-24
2023/12/26 05:20:24;;;;;;;0.00;0.00;;;12.90;83.00;;;;;;5082914;28;20195;-24
2023/12/26 05:23:00;;;;;;;0.00;0.00;;;12.90;83.00;;;;;;5083185;28;20218;-24
2023/12/26 05:25:27;;;;;;;0.00;0.00;;;12.90;83.00;;;;;;5083769;28;20289;-24
2023/12/26 05:27:55;;;;;;;0.00;0.00;;;12.90;82.90;;;;;;5070239;28;20621;-24
2023/12/26 05:30:22;;;;;;;0.00;0.00;;;12.90;82.90;;;;;;5085866;28;20290;-24
2023/12/26 05:32:52;;;;;;;0.00;0.00;;;12.90;83.00;;;;;;5087638;28;20573;-24
2023/12/26 05:35:22;;;;;;;0.00;0.00;;;12.90;83.00;;;;;;5088920;28;20677;-24
2023/12/26 05:37:49;;;;;;;0.00;0.00;;;12.90;82.90;;;;;;5087907;28;20195;-24
2023/12/26 05:40:19;;;;;;;0.00;0.00;;;12.90;82.90;;;;;;5090120;28;20214;-24
2023/12/26 05:42:47;;;;;;;0.00;0.00;;;12.90;82.90;;;;;;5068305;28;20199;-24
2023/12/26 05:45:14;;;;;;;0.00;0.00;;;12.90;82.90;;;;;;5070443;28;20208;-24
2023/12/26 05:47:42;;;;;;;0.00;0.00;;;12.90;82.90;;;;;;5076013;28;20737;-24
2023/12/26 05:50:12;;;;;;;0.00;0.00;;;12.90;83.00;;;;;;5067237;28;20204;-24
2023/12/26 05:52:42;;;;;;;0.00;0.00;;;12.90;82.90;;;;;;5069976;28;20218;-23
2023/12/26 05:55:13;;;;;;;0.00;0.00;;;12.90;83.00;;;;;;5054400;28;20225;-23
2023/12/26 05:57:41;;;;;;;0.00;0.00;;;12.90;83.00;;;;;;5071003;28;20204;-23
2023/12/26 06:00:09;;;;;;;0.00;0.00;;;12.90;83.00;;;;;;5070200;28;20195;-24
2023/12/26 06:02:41;;;;;;;0.00;0.00;;;12.90;83.00;;;;;;5068927;28;20192;-24
2023/12/26 06:05:09;;;;;;;0.00;0.00;;;12.90;82.90;;;;;;5077928;28;20270;-24
2023/12/26 06:07:36;;;;;;;0.00;0.00;;;12.90;82.90;;;;;;5070696;28;20223;-24
2023/12/26 06:10:09;;;;;;;0.00;0.00;;;12.90;82.90;;;;;;5068474;28;20979;-24
2023/12/26 06:12:36;;;;;;;0.00;0.00;;;12.90;82.90;;;;;;5069447;28;20235;-24
2023/12/26 06:15:04;;;;;;;0.00;0.00;;;12.90;83.00;;;;;;5073725;28;20217;-24
2023/12/26 06:17:36;;;;;;;0.00;0.00;;;12.90;82.90;;;;;;5083454;28;20201;-24
2023/12/26 06:20:09;;;;;;;0.00;0.00;;;12.90;82.90;;;;;;5075653;28;20218;-23
2023/12/26 06:22:38;;;;;;;0.00;0.00;;;12.90;83.00;;;;;;5071519;28;20226;-24
2023/12/26 06:25:10;;;;;;;0.00;0.00;;;12.90;82.90;;;;;;5089851;28;20222;-24
2023/12/26 06:27:38;;;;;;;0.00;0.00;;;12.90;82.90;;;;;;5086450;28;20202;-26
2023/12/26 06:30:06;;;;;;;0.00;0.00;;;12.90;82.90;;;;;;5069928;28;20202;-24
2023/12/26 06:32:33;;;;;;;0.00;0.00;;;12.90;82.90;;;;;;5085771;28;20195;-24
2023/12/26 06:35:02;;;;;;;0.00;0.00;;;12.90;83.00;;;;;;5081172;28;20219;-24
2023/12/26 06:37:32;;;;;;;0.00;0.00;;;12.90;82.90;;;;;;5078955;28;20232;-24
2023/12/26 06:40:02;;;;;;;0.00;0.00;;;12.90;82.90;;;;;;5066158;28;20587;-24
2023/12/26 06:42:29;;;;;;;0.00;0.00;;;12.90;82.90;;;;;;5081576;28;20217;-23
2023/12/26 06:44:56;;;;;;;0.00;0.00;;;12.90;83.00;;;;;;5083489;28;20195;-23
2023/12/26 06:47:28;;;;;;;0.00;0.00;;;12.90;83.00;;;;;;5083929;28;20657;-24
2023/12/26 06:49:58;;;;;;;0.00;0.00;;;12.90;82.90;;;;;;5083910;28;20195;-24
2023/12/26 06:52:28;;;;;;;0.00;0.00;;;12.90;83.00;;;;;;5087440;28;20203;-24
2023/12/26 06:54:55;;;;;;;0.00;0.00;;;12.90;83.00;;;;;;5081911;28;20207;-24
2023/12/26 06:57:27;;;;;;;0.00;0.00;;;12.90;82.90;;;;;;5085453;28;20715;-24
2023/12/26 06:59:54;;;;;;;0.00;0.00;;;12.90;83.00;;;;;;5085151;28;20199;-23
2023/12/26 07:02:21;;;;;;;0.00;0.00;;;13.00;83.00;;;;;;5083303;28;20203;-24
2023/12/26 07:04:49;;;;;;;0.00;0.00;;;12.90;82.80;;;;;;5077364;28;20226;-24
2023/12/26 07:07:16;;;;;;;0.00;0.00;;;12.90;82.80;;;;;;5080680;28;20286;-24
2023/12/26 07:09:43;;;;;;;0.00;0.00;;;12.90;82.80;;;;;;5079115;28;20307;-24
2023/12/26 07:12:10;;;;;;;0.00;0.00;;;12.90;82.90;;;;;;5086287;28;20199;-23
2023/12/26 07:14:40;;;;;;;0.00;0.00;;;12.90;82.80;;;;;;5085519;28;20205;-23
2023/12/26 07:17:09;;;;;;;0.00;0.00;;;12.90;82.90;;;;;;5081056;28;20211;-31
2023/12/26 07:19:39;;;;;;;0.00;0.00;;;12.90;82.90;;;;;;5076520;28;20210;-23
2023/12/26 07:22:06;;;;;;;0.00;0.00;;;12.90;82.80;;;;;;5085610;28;20332;-24
2023/12/26 07:24:34;;;;;;;0.00;0.00;;;12.90;82.80;;;;;;5083369;28;20234;-23
2023/12/26 07:27:07;;;;;;;0.00;0.00;;;12.90;82.80;;;;;;5084141;28;20207;-24
2023/12/26 07:29:39;;;;;;;0.00;0.00;;;12.90;82.80;;;;;;5084154;28;20305;-23
2023/12/26 07:32:09;;;;;;;0.00;0.00;;;12.90;82.70;;;;;;5080874;28;20733;-24
2023/12/26 07:34:40;;;;;;;0.00;0.00;;;12.90;82.80;;;;;;5085522;28;20309;-24
2023/12/26 07:37:10;;;;;;;0.00;0.00;;;12.90;82.80;;;;;;5065441;28;20219;-24
2023/12/26 07:39:40;;;;;;;0.00;0.00;;;12.90;82.80;;;;;;5082459;28;20281;-24
2023/12/26 07:42:14;;;;;;;0.00;0.00;;;12.90;82.70;;;;;;5083109;28;20206;-23
2023/12/26 07:44:54;;;;;;;0.00;0.00;;;12.90;82.50;;;;;;5087209;28;20223;-24
2023/12/26 07:47:26;;;;;;;0.00;0.00;;;12.80;82.40;;;;;;5080386;28;20210;-24
2023/12/26 07:49:58;;;;;;;0.00;0.00;;;12.80;82.40;;;;;;5070273;28;20585;-46
2023/12/26 07:52:26;;;;;;;0.00;0.00;;;12.80;82.10;;;;;;5064615;28;20219;-45
2023/12/26 07:54:53;;;;;;;0.00;0.00;;;12.70;82.10;;;;;;5080557;28;20326;-44
2023/12/26 07:57:20;;;;;;;0.00;0.00;;;12.70;81.80;;;;;;5083751;28;20246;-45
2023/12/26 07:59:48;;;;;;;0.00;0.00;;;12.60;81.70;;;;;;5082864;28;20202;-45
2023/12/26 08:02:16;;;;;;;0.00;0.00;;;12.60;81.90;;;;;;5082865;28;20202;-44
2023/12/26 08:04:43;;;;;;;0.00;0.00;;;12.60;81.80;;;;;;5083959;28;20218;-44
2023/12/26 08:07:12;;;;;;;0.00;0.00;;;12.50;81.60;;;;;;5080740;28;20207;-45
2023/12/26 08:09:42;;;;;;;0.00;0.00;;;12.50;81.90;;;;;;5082786;28;20580;-45
2023/12/26 08:12:12;;;;;;;0.00;0.00;;;12.40;81.90;;;;;;5082131;28;20207;-43
2023/12/26 08:14:42;;;;;;;0.00;0.00;;;12.40;81.80;;;;;;5077014;28;20198;-44
2023/12/26 08:17:12;;;;;;;0.00;0.00;;;12.30;81.80;;;;;;5082526;28;20223;-45
2023/12/26 08:19:41;;;;;;;0.00;0.00;;;12.30;81.80;;;;;;5082278;28;20222;-44
2023/12/26 08:22:09;;;;;;;0.00;0.00;;;12.30;81.80;;;;;;5084353;28;20249;-44
2023/12/26 08:24:36;;;;;;;0.00;0.00;;;12.20;81.70;;;;;;5083287;28;20206;-45
2023/12/26 08:27:07;;;;;;;0.00;0.00;;;12.20;81.80;;;;;;5088200;28;20218;-45
2023/12/26 08:29:34;;;;;;;0.00;0.00;;;12.20;81.70;;;;;;5087970;28;20211;-45
2023/12/26 08:32:04;;;;;;;0.00;0.00;;;12.10;81.60;;;;;;5075732;28;20230;-45
2023/12/26 08:34:31;;;;;;;0.00;0.00;;;12.10;81.60;;;;;;5063712;28;20206;-45
2023/12/26 08:37:02;;;;;;;0.00;0.00;;;12.00;81.50;;;;;;5088024;28;20322;-45
2023/12/26 08:39:32;;;;;;;0.00;0.00;;;12.00;81.50;;;;;;5071086;28;20280;-45
2023/12/26 08:42:02;;;;;;;0.00;0.00;;;12.00;81.60;;;;;;5059194;28;20203;-46
2023/12/26 08:44:31;;;;;;;0.00;0.00;;;11.90;81.50;;;;;;5072814;28;20308;-46
2023/12/26 08:47:05;;;;;;;0.00;0.00;;;11.90;81.60;;;;;;5066296;28;20215;-45
2023/12/26 08:49:33;;;;;;;0.00;0.00;;;11.90;81.60;;;;;;5082078;28;20209;-46
2023/12/26 08:52:07;;;;;;;0.00;0.00;;;11.90;81.60;;;;;;5087283;28;20337;-46
2023/12/26 08:54:37;;;;;;;0.00;0.00;;;11.90;81.60;;;;;;5086577;28;20209;-45
2023/12/26 08:57:07;;;;;;;0.00;0.00;;;11.80;81.70;;;;;;5082141;28;20215;-45
2023/12/26 08:59:34;;;;;;;0.00;0.00;;;11.80;81.60;;;;;;5068511;28;20753;-45
2023/12/26 09:02:03;;;;;;;0.00;0.00;;;11.80;81.60;;;;;;5069326;28;20206;-46
2023/12/26 09:04:31;;;;;;;0.00;0.00;;;11.80;81.60;;;;;;5085262;28;20210;-46
2023/12/26 09:07:03;;;;;;;0.00;0.00;;;11.80;81.70;;;;;;5084780;28;20202;-45
2023/12/26 09:09:34;;;;;;;0.00;0.00;;;11.80;81.70;;;;;;5077203;28;20207;-44
2023/12/26 09:12:01;;;;;;;0.00;0.00;;;11.80;81.60;;;;;;5085203;28;20211;-44
2023/12/26 09:14:28;;;;;;;0.00;0.00;;;11.70;81.40;;;;;;5093886;28;20219;-45
2023/12/26 09:17:00;;;;;;;0.00;0.00;;;11.70;81.50;;;;;;5086015;28;20244;-45
2023/12/26 09:19:33;;;;;;;0.00;0.00;;;11.70;81.50;;;;;;5087299;28;20290;-48
2023/12/26 09:22:00;;;;;;;0.00;0.00;;;11.70;81.50;;;;;;5089557;28;20198;-45
2023/12/26 09:24:32;;;;;;;0.00;0.00;;;11.60;81.50;;;;;;5092968;28;20260;-46
2023/12/26 09:26:59;;;;;;;0.00;0.00;;;11.60;81.50;;;;;;5093375;28;20222;-45
2023/12/26 09:29:29;;;;;;;0.00;0.00;;;11.60;81.60;;;;;;5076758;28;20217;-46
2023/12/26 09:31:57;;;;;;;0.00;0.00;;;11.60;81.60;;;;;;5094051;28;20205;-45
2023/12/26 09:34:24;;;;;;;0.00;0.00;;;11.60;81.60;;;;;;5091028;28;20680;-45
2023/12/26 09:36:58;;;;;;;0.00;0.00;;;11.70;81.70;;;;;;5093292;28;20640;-45
2023/12/26 09:39:27;;;;;;;0.00;0.00;;;11.60;81.70;;;;;;5092619;28;20226;-45
2023/12/26 09:42:02;;;;;;;0.00;0.00;;;11.60;81.70;;;;;;5091476;28;20699;-46
2023/12/26 09:44:42;;;;;;;0.00;0.00;;;11.70;81.80;;;;;;5091984;28;20640;-45
2023/12/26 09:47:14;;;;;;;0.00;0.00;;;11.70;81.80;;;;;;5091878;28;20560;-45
2023/12/26 09:49:43;;;;;;;0.00;0.00;;;11.70;81.80;;;;;;5090930;28;20209;-45
2023/12/26 09:52:11;;;;;;;0.00;0.00;;;11.70;81.80;;;;;;5089871;28;20264;-46
2023/12/26 09:54:42;;;;;;;0.00;0.00;;;11.70;81.70;;;;;;5092793;28;20483;-46
2023/12/26 09:57:18;;;;;;;0.00;0.00;;;11.70;81.80;;;;;;5086693;28;20686;-45
2023/12/26 09:59:47;;;;;;;0.00;0.00;;;11.70;81.80;;;;;;5076411;28;20199;-46
2023/12/26 10:02:14;;;;;;;0.00;0.00;;;11.80;81.90;;;;;;5092777;28;20580;-46
2023/12/26 10:04:46;;;;;;;0.00;0.00;;;11.80;81.90;;;;;;5087914;28;20213;-45
2023/12/26 10:07:14;;;;;;;0.00;0.00;;;11.80;81.90;;;;;;5087721;28;20668;-45
2023/12/26 10:09:42;;;;;;;0.00;0.00;;;11.80;81.90;;;;;;5084164;28;20635;-46
2023/12/26 10:12:10;;;;;;;0.00;0.00;;;11.90;82.00;;;;;;5072230;28;20219;-45
2023/12/26 10:14:37;;;;;;;0.00;0.00;;;11.90;81.90;;;;;;5090178;28;20711;-45
2023/12/26 10:17:07;;;;;;;0.00;0.00;;;11.90;81.90;;;;;;5091433;28;20210;-46
2023/12/26 10:19:34;;;;;;;0.00;0.00;;;11.90;81.80;;;;;;5074115;28;20195;-45
2023/12/26 10:22:05;;;;;;;0.00;0.00;;;12.00;81.90;;;;;;5075495;28;20204;-45
2023/12/26 10:24:32;;;;;;;0.00;0.00;;;12.00;81.90;;;;;;5090895;28;20217;-46
2023/12/26 10:27:02;;;;;;;0.00;0.00;;;12.00;81.90;;;;;;5074671;28;20289;-46
2023/12/26 10:29:35;;;;;;;0.00;0.00;;;12.00;81.80;;;;;;5081033;28;20207;-45
2023/12/26 10:32:03;;;;;;;0.00;0.00;;;12.00;82.00;;;;;;5091158;28;20887;-45
2023/12/26 10:34:30;;;;;;;0.00;0.00;;;12.00;81.80;;;;;;5090230;28;20206;-45
2023/12/26 10:36:59;;;;;;;0.00;0.00;;;12.00;81.80;;;;;;5089846;28;20223;-44
2023/12/26 10:39:30;;;;;;;0.00;0.00;;;12.00;81.80;;;;;;5072674;28;20210;-46
2023/12/26 10:41:58;;;;;;;0.00;0.00;;;12.00;81.60;;;;;;5085787;28;20685;-44
2023/12/26 10:44:52;;;;;;;0.00;0.00;;;12.00;81.70;;;;;;5084576;28;20201;-44
2023/12/26 10:47:23;;;;;;;0.00;0.00;;;12.00;81.60;;;;;;5081042;28;20207;-45
2023/12/26 10:49:55;;;;;;;0.00;0.00;;;12.00;81.60;;;;;;5072290;28;20211;-47
2023/12/26 10:52:26;;;;;;;0.00;0.00;;;12.00;81.40;;;;;;5072612;28;20202;-44
2023/12/26 10:55:00;;;;;;;0.00;0.00;;;12.00;81.60;;;;;;5080381;28;20272;-45
2023/12/26 10:57:34;;;;;;;0.00;0.00;;;12.00;81.60;;;;;;5089355;28;20230;-46
2023/12/26 13:51:33;;;;;;;0.00;0.00;;;11.20;80.90;;;;;;5092919;28;20203;-44
2023/12/26 13:54:40;;;;;;;0.00;0.00;;;11.20;81.00;;;;;;5079869;28;20187;-43
2023/12/26 13:57:45;;;;;;;0.00;0.00;;;11.20;81.10;;;;;;5080880;28;20264;-43
2023/12/26 14:00:13;;;;;;;0.00;0.00;;;11.20;81.10;;;;;;5092121;28;20198;-42
2023/12/26 14:02:40;;;;;;;0.00;0.00;;;11.30;81.10;;;;;;5080980;28;20221;-43
2023/12/26 14:05:09;;;;;;;0.00;0.00;;;11.30;81.10;;;;;;5085879;28;20237;-43
2023/12/26 14:07:44;;;;;;;0.00;0.00;;;11.30;80.50;;;;;;5085317;28;20207;-44
2023/12/26 14:10:16;;;;;;;0.00;0.00;;;11.40;80.90;;;;;;5091248;28;20190;-43
2023/12/26 14:12:46;;;;;;;0.00;0.00;;;11.40;80.80;;;;;;5087880;28;20391;-44
2023/12/26 14:15:20;;;;;;;0.00;0.00;;;11.40;80.70;;;;;;5078100;28;20607;-42
2023/12/26 14:17:47;;;;;;;0.00;0.00;;;11.40;80.70;;;;;;5071835;28;20260;-44
2023/12/26 14:20:55;;;;;;;0.00;0.00;;;11.40;80.90;;;;;;5082391;28;20214;-42
2023/12/26 14:23:59;;;;;;;0.00;0.00;;;11.50;81.00;;;;;;5085829;28;20207;-43
2023/12/26 14:26:28;;;;;;;0.00;0.00;;;11.50;80.90;;;;;;5082791;28;20202;-43
2023/12/26 14:28:58;;;;;;;0.00;0.00;;;11.50;81.00;;;;;;5079432;28;20210;-44
2023/12/26 14:32:09;;;;;;;0.00;0.00;;;11.50;80.90;;;;;;5080775;28;20240;-43
2023/12/26 14:35:17;;;;;;;0.00;0.00;;;11.50;80.90;;;;;;5074012;28;20295;-44
2023/12/26 14:38:22;;;;;;;0.00;0.00;;;11.50;80.90;;;;;;5079629;28;20317;-43
2023/12/26 14:41:27;;;;;;;0.00;0.00;;;11.50;81.00;;;;;;5085236;28;20222;-44
2023/12/26 14:44:32;;;;;;;0.00;0.00;;;11.50;80.90;;;;;;5088697;28;20191;-44
2023/12/26 14:47:37;;;;;;;0.00;0.00;;;11.50;80.90;;;;;;5084587;28;20214;-42
2023/12/26 14:50:45;;;;;;;0.00;0.00;;;11.50;80.90;;;;;;5075855;28;20199;-44
2023/12/26 14:53:50;;;;;;;0.00;0.00;;;11.50;80.90;;;;;;5084012;28;20199;-44
2023/12/26 14:56:20;;;;;;;0.00;0.00;;;11.50;80.90;;;;;;5090758;28;20206;-44
2023/12/26 14:58:48;;;;;;;0.00;0.00;;;11.50;80.80;;;;;;5087956;28;20237;-43
2023/12/26 15:01:15;;;;;;;0.00;0.00;;;11.50;80.80;;;;;;5083733;28;20199;-43
2023/12/26 15:03:48;;;;;;;0.00;0.00;;;11.50;80.70;;;;;;5090630;28;20250;-43
2023/12/26 15:06:16;;;;;;;0.00;0.00;;;11.50;80.70;;;;;;5090079;28;20231;-44
2023/12/26 15:08:46;;;;;;;0.00;0.00;;;11.50;80.70;;;;;;5071707;28;20703;-44
2023/12/26 15:11:17;;;;;;;0.00;0.00;;;11.50;80.60;;;;;;5071360;28;20215;-44
2023/12/26 15:13:48;;;;;;;0.00;0.00;;;11.60;80.70;;;;;;5085838;28;20219;-44
2023/12/26 15:16:40;;;;;;;0.00;0.00;;;11.60;80.70;;;;;;5068649;28;20192;-43
2023/12/26 15:19:07;;;;;;;0.00;0.00;;;11.60;80.70;;;;;;5071796;28;20608;-43
2023/12/26 15:21:44;;;;;;;0.00;0.00;;;11.60;80.70;;;;;;5065617;28;20200;-44
2023/12/26 15:24:13;;;;;;;0.00;0.00;;;11.60;80.60;;;;;;5080151;28;20210;-42
2023/12/26 15:26:47;;;;;;;0.00;0.00;;;11.60;80.60;;;;;;5086196;28;20198;-44
2023/12/26 15:29:19;;;;;;;0.00;0.00;;;11.60;80.60;;;;;;5067910;28;20246;-42
2023/12/26 15:31:47;;;;;;;0.00;0.00;;;11.60;80.40;;;;;;5077115;28;20608;-43
2023/12/26 15:34:17;;;;;;;0.00;0.00;;;11.60;80.40;;;;;;5082455;28;20221;-42
2023/12/26 15:36:47;;;;;;;0.00;0.00;;;11.50;80.30;;;;;;5076286;28;20272;-42
2023/12/26 15:39:15;;;;;;;0.00;0.00;;;11.50;80.30;;;;;;5080113;28;20203;-44
2023/12/26 15:41:48;;;;;;;0.00;0.00;;;11.50;80.30;;;;;;5081676;28;20207;-43
2023/12/26 15:44:16;;;;;;;0.00;0.00;;;11.50;80.30;;;;;;5073949;28;20703;-42
2023/12/26 15:46:43;;;;;;;0.00;0.00;;;11.50;80.30;;;;;;5061094;28;20199;-44
2023/12/26 15:49:15;;;;;;;0.00;0.00;;;11.50;80.30;;;;;;5087835;28;20297;-42
2023/12/26 15:51:45;;;;;;;0.00;0.00;;;11.50;80.20;;;;;;5072680;28;20207;-43
2023/12/26 15:54:16;;;;;;;0.00;0.00;;;11.50;80.30;;;;;;5077919;28;20223;-41
2023/12/26 15:56:44;;;;;;;0.00;0.00;;;11.40;80.20;;;;;;5079567;28;20242;-43
2023/12/26 15:59:11;;;;;;;0.00;0.00;;;11.40;80.20;;;;;;5078290;28;20216;-43